Huvudsida
METAR-TAF:

METAR-TAF

Flygplatser :

Kalmar Öland Airport

Kalmar, Sverige

latitud: 56-44N, longitud: 016-18E, höjd: 16 m

Aktuellt väderrapport

Denna rapport gjordes för 12 minuter sedan, klockan 19:20 UTC
Vind 3 kt från sydväst
Temperatur 19°C
Fuktighet 52%
Tryck 1018 hPa
Sikt 10 km eller mer
Inga moln under 1 500 m eller inga cumulonimbus

METAR: ESMQ 251920Z 22003KT CAVOK 19/09 Q1018

Tid: 21:32 (19:32 UTC)

Väderprognos

Denna rapport gjordes för 2 timmar och 2 minuter sedan, klockan 17:30 UTC
Prognos gäller från 25 kl. 18 UTC till 25 kl. 22 UTC
Vind 8 kt från syd
Sikt 10 km eller mer
Inga moln under 1 500 m eller inga cumulonimbus

TAF: ESMQ 251730Z 2518/2522 17008KT CAVOK

Aktuella väderrapporter och prognoser från 4000 flygplatser (METAR- och TAF-rapporter).

De tillgängliga stationerna syns som gula och röda prickar på kartan.

För musen över prickarna för att se namnen på stationerna.

Klicka sedan för att få väderrapporter och prognoser.

För att ändra kartan: Klicka på de gröna knapparna med ett svart kors på för att zooma in; den gröna knappen med ett streck på för att zooma ut; eller på de gröna pilarna för angränsande kartor.


METAR-TAF: